Time;durP1;ratioP1;P1;durP2;ratioP2;P2;SDS_P1;SDS_P2;PMS_P1;PMS_P2;Temp;Humidity;BMP_temperature;BMP_pressure;BME280_temperature;BME280_humidity;BME280_pressure;Samples;Min_cycle;Max_cycle;Signal;HPM_P1;HPM_P2
2021/03/10 00:00:51;;;;;;;11.50;7.55;;;3.20;99.90;;;;;;4996501;28;20053;-91
2021/03/10 00:03:16;;;;;;;11.13;7.18;;;3.10;99.90;;;;;;4995805;28;20417;-91
2021/03/10 00:05:42;;;;;;;11.30;7.47;;;3.10;99.90;;;;;;4993586;28;20953;-89
2021/03/10 00:08:08;;;;;;;11.10;7.30;;;3.10;99.90;;;;;;4976475;28;20046;-89
2021/03/10 00:10:33;;;;;;;11.70;7.65;;;3.10;99.90;;;;;;4976600;28;20126;-90
2021/03/10 00:12:59;;;;;;;12.75;8.02;;;3.10;99.90;;;;;;4977282;28;20033;-89
2021/03/10 00:15:24;;;;;;;12.50;7.70;;;3.10;99.90;;;;;;4976364;28;20043;-89
2021/03/10 00:17:51;;;;;;;11.75;7.82;;;3.10;99.90;;;;;;4980169;28;20072;-89
2021/03/10 00:20:18;;;;;;;11.00;7.45;;;3.20;99.90;;;;;;4996583;28;20085;-89
2021/03/10 00:22:43;;;;;;;10.38;6.90;;;3.30;99.90;;;;;;4995945;28;20022;-89
2021/03/10 00:25:10;;;;;;;11.50;7.50;;;3.40;99.90;;;;;;4996042;28;20317;-91
2021/03/10 00:27:36;;;;;;;11.45;7.30;;;3.40;99.90;;;;;;4995752;28;20095;-89
2021/03/10 00:30:05;;;;;;;12.40;8.05;;;3.50;99.90;;;;;;4996304;28;20033;-90
2021/03/10 00:32:31;;;;;;;11.98;7.80;;;3.60;99.90;;;;;;4995752;28;20034;-89
2021/03/10 00:34:57;;;;;;;11.23;7.28;;;3.60;99.90;;;;;;4996159;28;20034;-90
2021/03/10 00:37:23;;;;;;;11.95;8.15;;;3.60;99.90;;;;;;4995608;28;20030;-90
2021/03/10 00:39:50;;;;;;;12.55;7.95;;;3.60;99.90;;;;;;4995191;28;20037;-90
2021/03/10 00:42:17;;;;;;;12.35;7.78;;;3.60;99.90;;;;;;4995834;28;20053;-90
2021/03/10 00:44:43;;;;;;;12.07;8.35;;;3.50;99.90;;;;;;4995796;28;20492;-90
2021/03/10 00:47:09;;;;;;;12.57;8.38;;;3.40;99.90;;;;;;4998456;28;20042;-91
2021/03/10 00:49:37;;;;;;;12.23;7.63;;;3.30;99.90;;;;;;4999977;28;20125;-91
2021/03/10 00:52:02;;;;;;;12.63;8.45;;;3.30;99.90;;;;;;4999278;28;20038;-91
2021/03/10 00:54:28;;;;;;;11.93;7.85;;;3.20;99.90;;;;;;4981647;28;20041;-91
2021/03/10 00:56:56;;;;;;;12.18;7.93;;;3.10;99.90;;;;;;4978690;28;20084;-90
2021/03/10 00:59:22;;;;;;;14.00;8.30;;;3.00;99.90;;;;;;4978130;28;20031;-90
2021/03/10 01:01:47;;;;;;;11.30;7.55;;;3.00;99.90;;;;;;4977527;28;20141;-90
2021/03/10 01:04:13;;;;;;;12.30;8.27;;;3.00;99.90;;;;;;4984918;28;20360;-89
2021/03/10 01:06:39;;;;;;;11.95;7.50;;;2.90;99.90;;;;;;4981200;28;20042;-89
2021/03/10 01:09:08;;;;;;;12.57;7.93;;;2.90;99.90;;;;;;4978070;28;20026;-88
2021/03/10 01:11:34;;;;;;;12.05;8.10;;;2.80;99.90;;;;;;4978136;28;20053;-88
2021/03/10 01:14:00;;;;;;;12.73;8.38;;;2.80;99.90;;;;;;4977861;28;20472;-88
2021/03/10 01:16:27;;;;;;;11.65;7.88;;;2.80;99.90;;;;;;4977693;28;20054;-88
2021/03/10 01:18:53;;;;;;;13.35;8.40;;;2.70;99.90;;;;;;4978253;28;20039;-89
2021/03/10 01:21:19;;;;;;;12.65;8.32;;;2.70;99.90;;;;;;4977634;28;20121;-88
2021/03/10 01:23:44;;;;;;;13.35;7.95;;;2.70;99.90;;;;;;4995466;28;20034;-88
2021/03/10 01:26:10;;;;;;;12.73;8.00;;;2.70;99.90;;;;;;4978025;28;20082;-89
2021/03/10 01:28:36;;;;;;;12.48;8.02;;;2.70;99.90;;;;;;4977837;28;20038;-90
2021/03/10 01:31:01;;;;;;;13.27;8.48;;;2.60;99.90;;;;;;4977867;28;20134;-91
2021/03/10 01:33:27;;;;;;;12.18;7.95;;;2.70;99.90;;;;;;4979263;28;20093;-90
2021/03/10 01:35:54;;;;;;;11.32;7.57;;;2.60;99.90;;;;;;4997736;28;20464;-90
2021/03/10 01:38:19;;;;;;;12.10;7.90;;;2.60;99.90;;;;;;4981303;28;20034;-90
2021/03/10 01:40:48;;;;;;;11.82;7.85;;;2.60;99.90;;;;;;4997327;28;20041;-90
2021/03/10 01:43:13;;;;;;;12.93;8.50;;;2.50;99.90;;;;;;4996785;28;20069;-89
2021/03/10 01:45:39;;;;;;;11.75;7.90;;;2.50;99.90;;;;;;4996948;28;20462;-90
2021/03/10 01:48:10;;;;;;;13.90;8.40;;;2.50;99.90;;;;;;4997234;28;20050;-90
2021/03/10 01:50:36;;;;;;;14.45;9.60;;;2.50;99.90;;;;;;4997363;28;20034;-90
2021/03/10 01:53:03;;;;;;;14.07;9.15;;;2.40;99.90;;;;;;4996060;28;20065;-90
2021/03/10 01:55:30;;;;;;;12.43;8.32;;;2.40;99.90;;;;;;5011332;28;20030;-90
2021/03/10 01:57:57;;;;;;;13.25;8.55;;;2.40;99.90;;;;;;4977431;28;20034;-91
2021/03/10 02:00:24;;;;;;;14.60;8.75;;;2.40;99.90;;;;;;4978105;28;20042;-91
2021/03/10 02:02:51;;;;;;;11.77;8.25;;;2.40;99.90;;;;;;4977509;28;20166;-90
2021/03/10 02:05:22;;;;;;;14.52;8.45;;;2.40;99.90;;;;;;4977650;28;20034;-89
2021/03/10 02:08:06;;;;;;;12.18;8.10;;;2.40;99.90;;;;;;4958044;28;20058;-90
2021/03/10 02:10:38;;;;;;;14.32;8.32;;;2.30;99.90;;;;;;4959146;28;20041;-90
2021/03/10 02:13:09;;;;;;;12.95;8.25;;;2.30;99.90;;;;;;4959720;28;20027;-89
2021/03/10 02:16:18;;;;;;;13.60;8.30;;;2.30;99.90;;;;;;4959462;28;20073;-90
2021/03/10 02:19:10;;;;;;;12.45;7.65;;;2.30;99.90;;;;;;4916259;28;20047;-90
2021/03/10 02:22:02;;;;;;;12.52;7.50;;;2.30;99.90;;;;;;4961266;28;20038;-90
2021/03/10 02:24:27;;;;;;;15.68;8.38;;;2.30;99.90;;;;;;4964184;28;20120;-89
2021/03/10 02:27:05;;;;;;;11.70;7.93;;;2.30;99.90;;;;;;4980182;28;20089;-90
2021/03/10 02:29:32;;;;;;;11.32;7.43;;;2.20;99.90;;;;;;4980185;28;20116;-91
2021/03/10 02:31:58;;;;;;;11.65;7.93;;;2.30;99.90;;;;;;4980934;28;20030;-90
2021/03/10 02:34:26;;;;;;;11.73;8.20;;;2.30;99.90;;;;;;4981201;28;20035;-90
2021/03/10 02:36:53;;;;;;;10.95;7.03;;;2.20;99.90;;;;;;4981361;28;20057;-90
2021/03/10 02:39:20;;;;;;;11.52;7.32;;;2.20;99.90;;;;;;4980509;28;20050;-91
2021/03/10 02:41:46;;;;;;;12.10;7.38;;;2.20;99.90;;;;;;4980366;28;20046;-90
2021/03/10 02:44:14;;;;;;;11.85;7.78;;;2.20;99.90;;;;;;4980461;28;20030;-90
2021/03/10 02:46:42;;;;;;;11.15;8.02;;;2.30;99.90;;;;;;4980066;28;20038;-92
2021/03/10 02:49:08;;;;;;;11.63;7.75;;;2.30;99.90;;;;;;4980039;28;20034;-90
2021/03/10 02:51:35;;;;;;;12.10;8.27;;;2.40;99.90;;;;;;4980306;28;20069;-89
2021/03/10 02:54:03;;;;;;;13.73;8.63;;;2.50;99.90;;;;;;4980155;28;20070;-90
2021/03/10 02:56:42;;;;;;;14.32;8.57;;;2.50;99.90;;;;;;4979907;28;20034;-90
2021/03/10 02:59:08;;;;;;;14.90;9.15;;;2.60;99.90;;;;;;4980337;28;20042;-89
2021/03/10 03:01:34;;;;;;;15.77;9.45;;;2.70;99.90;;;;;;4979716;28;20037;-89
2021/03/10 03:03:59;;;;;;;14.02;9.20;;;2.70;99.90;;;;;;4979866;28;20026;-89
2021/03/10 03:06:25;;;;;;;14.85;9.40;;;2.80;99.90;;;;;;4979516;28;20105;-90
2021/03/10 03:08:51;;;;;;;15.07;9.63;;;2.80;99.90;;;;;;4979184;28;20045;-89
2021/03/10 03:11:17;;;;;;;15.57;9.57;;;2.80;99.90;;;;;;4980153;28;20038;-89
2021/03/10 03:13:42;;;;;;;14.65;9.30;;;2.90;99.90;;;;;;4979473;28;20058;-89
2021/03/10 03:16:08;;;;;;;14.05;10.00;;;2.90;99.90;;;;;;4979162;28;20046;-90
2021/03/10 03:18:35;;;;;;;17.23;11.00;;;2.90;99.90;;;;;;4979411;28;20030;-90
2021/03/10 03:21:02;;;;;;;14.75;9.68;;;2.90;99.90;;;;;;4979242;28;20431;-91
2021/03/10 03:23:28;;;;;;;16.58;10.27;;;3.00;99.90;;;;;;4979282;28;20030;-90
2021/03/10 03:25:58;;;;;;;16.55;10.32;;;3.00;99.90;;;;;;4996195;28;20048;-88
2021/03/10 03:28:27;;;;;;;15.20;9.85;;;3.00;99.90;;;;;;4979055;28;20053;-89
2021/03/10 03:30:55;;;;;;;15.75;10.15;;;3.00;99.90;;;;;;4996644;28;20473;-90
2021/03/10 03:33:25;;;;;;;16.05;10.02;;;3.10;99.90;;;;;;4978993;28;20112;-90
2021/03/10 03:35:53;;;;;;;14.95;9.40;;;3.10;99.90;;;;;;4979021;28;20037;-90
2021/03/10 03:38:21;;;;;;;16.85;10.25;;;3.20;99.90;;;;;;4978941;28;20475;-90
2021/03/10 03:40:49;;;;;;;16.05;10.10;;;3.20;99.90;;;;;;4979213;28;20427;-90
2021/03/10 03:43:15;;;;;;;15.30;9.68;;;3.30;99.90;;;;;;4978593;28;20045;-90
2021/03/10 03:45:41;;;;;;;16.45;10.75;;;3.30;99.90;;;;;;4978393;28;20076;-89
2021/03/10 03:48:07;;;;;;;15.27;9.68;;;3.30;99.90;;;;;;4978277;28;20558;-88
2021/03/10 03:50:33;;;;;;;15.60;10.10;;;3.30;99.90;;;;;;4978162;28;20396;-89
2021/03/10 03:52:59;;;;;;;15.98;9.70;;;3.40;99.90;;;;;;4978653;28;20030;-90
2021/03/10 03:55:25;;;;;;;15.75;10.30;;;3.40;99.90;;;;;;4978133;28;20026;-90
2021/03/10 03:57:51;;;;;;;15.73;10.98;;;3.40;99.90;;;;;;4978510;28;20041;-90
2021/03/10 04:00:20;;;;;;;15.88;11.20;;;3.40;99.90;;;;;;4978297;28;20069;-90
2021/03/10 04:02:47;;;;;;;19.67;12.73;;;3.50;99.90;;;;;;4978469;28;20037;-91
2021/03/10 04:05:16;;;;;;;20.00;13.35;;;3.50;99.90;;;;;;4978416;28;20448;-90
2021/03/10 04:07:46;;;;;;;23.45;14.80;;;3.60;99.90;;;;;;4978035;28;20046;-91
2021/03/10 04:10:12;;;;;;;22.27;14.80;;;3.50;99.90;;;;;;4978476;28;20103;-91
2021/03/10 04:12:38;;;;;;;25.92;15.38;;;3.50;99.90;;;;;;4978191;28;20115;-91
2021/03/10 04:15:04;;;;;;;22.83;15.85;;;3.50;99.90;;;;;;4978203;28;20034;-90
2021/03/10 04:17:30;;;;;;;23.80;15.57;;;3.50;99.90;;;;;;4960557;28;20039;-91
2021/03/10 04:19:55;;;;;;;20.30;14.55;;;3.50;99.90;;;;;;4958114;28;20500;-91
2021/03/10 04:22:21;;;;;;;23.25;15.35;;;3.60;99.90;;;;;;4958676;28;20051;-90
2021/03/10 04:24:47;;;;;;;23.60;16.17;;;3.60;99.90;;;;;;4959151;28;20027;-91
2021/03/10 04:27:15;;;;;;;29.65;18.92;;;3.60;99.90;;;;;;4958625;28;20452;-90
2021/03/10 04:29:40;;;;;;;26.35;17.02;;;3.60;99.90;;;;;;4958807;28;20039;-91
2021/03/10 04:32:06;;;;;;;23.05;15.27;;;3.70;99.90;;;;;;4976140;28;20035;-91
2021/03/10 04:34:32;;;;;;;23.85;15.43;;;3.70;99.90;;;;;;4958577;28;20046;-92
2021/03/10 04:36:58;;;;;;;22.95;14.52;;;3.70;99.90;;;;;;4958757;28;20362;-91
2021/03/10 04:39:23;;;;;;;22.88;15.13;;;3.70;99.90;;;;;;4958713;28;20043;-90
2021/03/10 04:41:49;;;;;;;23.17;16.02;;;3.70;99.90;;;;;;4958492;28;20038;-90
2021/03/10 04:44:14;;;;;;;23.52;15.10;;;3.80;99.90;;;;;;4959326;28;20130;-93
2021/03/10 04:46:40;;;;;;;20.75;14.32;;;3.70;99.90;;;;;;4958743;28;20085;-90
2021/03/10 04:49:08;;;;;;;20.40;13.15;;;3.80;99.90;;;;;;4958874;28;20078;-89
2021/03/10 04:51:34;;;;;;;20.77;12.98;;;3.80;99.90;;;;;;4958357;28;20031;-88
2021/03/10 04:54:00;;;;;;;17.85;12.15;;;3.80;99.90;;;;;;4958789;28;20169;-88
2021/03/10 04:56:25;;;;;;;22.48;15.25;;;3.90;99.90;;;;;;4957860;28;20039;-90
2021/03/10 04:58:51;;;;;;;27.45;17.25;;;3.90;99.90;;;;;;4958008;28;20046;-90
2021/03/10 05:01:17;;;;;;;22.05;14.25;;;3.90;99.90;;;;;;4958711;28;20023;-89
2021/03/10 05:03:42;;;;;;;20.42;15.23;;;3.90;99.90;;;;;;4958457;28;20038;-89
2021/03/10 05:06:08;;;;;;;23.02;16.25;;;3.90;99.90;;;;;;4958107;28;20034;-89
2021/03/10 05:08:34;;;;;;;24.35;15.52;;;3.90;99.90;;;;;;4958014;28;20042;-88
2021/03/10 05:11:00;;;;;;;20.45;14.68;;;3.90;99.90;;;;;;4957829;28;20110;-90
2021/03/10 05:13:25;;;;;;;27.42;18.88;;;3.90;99.90;;;;;;4958323;28;20442;-89
2021/03/10 05:15:51;;;;;;;27.65;18.48;;;3.90;99.90;;;;;;4961384;28;20388;-89
2021/03/10 05:18:16;;;;;;;23.33;16.73;;;3.80;99.90;;;;;;4978024;28;20031;-89
2021/03/10 05:20:42;;;;;;;25.23;15.90;;;3.80;99.90;;;;;;4977292;28;20038;-90
2021/03/10 05:23:08;;;;;;;25.58;17.90;;;3.80;99.90;;;;;;4977629;28;20472;-90
2021/03/10 05:25:34;;;;;;;25.27;17.80;;;3.70;99.90;;;;;;4978357;28;20038;-89
2021/03/10 05:28:00;;;;;;;27.20;18.13;;;3.70;99.90;;;;;;4977288;28;20042;-90
2021/03/10 05:30:26;;;;;;;25.10;16.80;;;3.80;99.90;;;;;;4977083;28;20037;-90
2021/03/10 05:32:52;;;;;;;24.67;16.88;;;3.80;99.90;;;;;;4979125;28;20125;-90
2021/03/10 05:35:17;;;;;;;29.77;19.20;;;3.80;99.90;;;;;;4978829;28;20022;-90
2021/03/10 05:37:43;;;;;;;29.40;18.98;;;3.80;99.90;;;;;;4981434;28;20081;-89
2021/03/10 05:40:09;;;;;;;27.80;20.05;;;3.80;99.90;;;;;;4975970;28;20101;-87
2021/03/10 05:42:40;;;;;;;29.10;19.80;;;3.80;99.90;;;;;;4977106;28;20034;-88
2021/03/10 05:45:07;;;;;;;27.73;19.15;;;3.80;99.90;;;;;;4988343;28;20034;-89
2021/03/10 05:47:32;;;;;;;28.70;20.15;;;3.90;99.90;;;;;;4998281;28;20056;-88
2021/03/10 05:49:58;;;;;;;29.77;19.77;;;3.90;99.90;;;;;;4979230;28;20034;-90
2021/03/10 05:52:24;;;;;;;29.80;20.88;;;4.00;99.90;;;;;;4995817;28;20031;-91
2021/03/10 05:54:51;;;;;;;31.50;20.48;;;4.00;99.90;;;;;;4986361;28;20125;-88
2021/03/10 05:57:20;;;;;;;27.63;18.92;;;4.00;99.90;;;;;;5009598;28;20042;-89
2021/03/10 05:59:45;;;;;;;24.80;18.25;;;4.00;99.90;;;;;;5010302;28;20042;-89
2021/03/10 06:02:11;;;;;;;28.33;18.85;;;4.00;99.90;;;;;;4977719;28;20447;-87
2021/03/10 06:04:41;;;;;;;29.23;19.00;;;4.10;99.90;;;;;;4985519;28;20070;-88
2021/03/10 06:07:19;;;;;;;33.50;20.25;;;4.10;99.90;;;;;;5002604;28;20046;-86
2021/03/10 06:10:04;;;;;;;29.33;19.27;;;4.10;99.90;;;;;;4989959;28;20025;-88
2021/03/10 06:12:56;;;;;;;25.10;17.45;;;4.10;99.90;;;;;;4997615;28;20033;-89
2021/03/10 06:15:21;;;;;;;24.95;18.40;;;4.10;99.90;;;;;;4993826;28;20100;-90
2021/03/10 06:17:49;;;;;;;26.23;17.52;;;4.10;99.90;;;;;;4998905;28;20050;-91
2021/03/10 06:20:30;;;;;;;25.17;17.33;;;4.10;99.90;;;;;;4998738;28;20030;-89
2021/03/10 06:22:56;;;;;;;27.38;17.90;;;4.10;99.90;;;;;;4987499;28;20495;-89
2021/03/10 06:25:23;;;;;;;27.45;18.67;;;4.10;99.90;;;;;;4978690;28;20038;-87
2021/03/10 06:27:56;;;;;;;30.70;20.20;;;4.00;99.90;;;;;;4977271;28;20058;-87
2021/03/10 06:30:32;;;;;;;36.88;21.42;;;4.00;99.90;;;;;;4983164;28;20552;-89
2021/03/10 06:32:58;;;;;;;30.20;18.95;;;4.10;99.90;;;;;;5007851;28;20168;-90
2021/03/10 06:35:25;;;;;;;28.67;17.00;;;4.10;99.90;;;;;;4981205;28;20113;-89
2021/03/10 06:37:51;;;;;;;31.00;20.17;;;4.10;99.90;;;;;;4995947;28;20038;-90
2021/03/10 06:40:17;;;;;;;31.42;19.02;;;4.10;99.90;;;;;;4979127;28;20093;-89
2021/03/10 06:42:53;;;;;;;31.23;18.50;;;4.20;99.90;;;;;;4986390;28;20034;-87
2021/03/10 06:45:31;;;;;;;31.33;18.92;;;4.20;99.90;;;;;;4994877;28;20044;-88
2021/03/10 06:47:57;;;;;;;31.83;20.08;;;4.20;99.90;;;;;;5015943;28;20108;-88
2021/03/10 06:50:34;;;;;;;31.70;18.90;;;4.20;99.90;;;;;;4998455;28;20462;-88
2021/03/10 06:52:59;;;;;;;34.85;20.90;;;4.30;99.90;;;;;;4989896;28;21497;-89
2021/03/10 06:55:36;;;;;;;29.42;18.85;;;4.30;99.90;;;;;;4978672;28;20023;-90
2021/03/10 06:58:02;;;;;;;30.23;19.02;;;4.30;99.90;;;;;;4984762;28;20054;-89
2021/03/10 07:00:27;;;;;;;31.65;19.15;;;4.30;99.90;;;;;;4978645;28;20519;-90
2021/03/10 07:02:54;;;;;;;38.47;23.02;;;4.40;99.90;;;;;;4978350;28;20034;-90
2021/03/10 07:05:20;;;;;;;36.30;22.38;;;4.40;99.90;;;;;;4977725;28;20097;-89
2021/03/10 07:07:47;;;;;;;39.90;22.27;;;4.40;99.90;;;;;;4977718;28;20042;-90
2021/03/10 07:10:13;;;;;;;36.08;22.70;;;4.50;99.90;;;;;;4982439;28;20025;-89
2021/03/10 07:12:40;;;;;;;39.08;23.42;;;4.50;99.90;;;;;;5015646;28;20041;-91
2021/03/10 07:15:06;;;;;;;42.80;23.75;;;4.60;99.90;;;;;;4985182;28;20030;-89
2021/03/10 07:17:32;;;;;;;45.03;26.80;;;4.60;99.90;;;;;;4992184;28;20054;-90
2021/03/10 07:19:58;;;;;;;63.08;34.22;;;4.60;99.90;;;;;;4995906;28;20037;-90
2021/03/10 07:22:29;;;;;;;61.72;35.25;;;4.70;99.90;;;;;;4995388;28;20117;-91
2021/03/10 07:25:24;;;;;;;75.25;41.30;;;4.70;99.90;;;;;;4984251;28;20034;-88
2021/03/10 07:28:05;;;;;;;65.53;37.47;;;4.80;99.90;;;;;;4972226;28;20051;-91
2021/03/10 07:30:35;;;;;;;74.82;41.00;;;4.80;99.90;;;;;;4994629;28;20027;-89
2021/03/10 07:33:22;;;;;;;71.75;40.22;;;4.90;99.90;;;;;;4990688;28;20042;-91
2021/03/10 07:35:55;;;;;;;81.32;45.08;;;4.90;99.90;;;;;;4974177;28;20054;-90
2021/03/10 07:38:37;;;;;;;66.45;39.20;;;5.00;99.90;;;;;;4975152;28;20083;-91
2021/03/10 07:41:04;;;;;;;67.53;39.67;;;5.00;99.90;;;;;;4977074;28;20097;-91
2021/03/10 07:43:44;;;;;;;72.68;40.55;;;5.10;99.90;;;;;;4990876;28;20387;-89
2021/03/10 07:46:34;;;;;;;74.90;43.63;;;5.10;99.90;;;;;;4977721;28;20038;-89
2021/03/10 07:49:02;;;;;;;77.43;43.20;;;5.10;99.90;;;;;;4994291;28;20038;-87
2021/03/10 07:51:36;;;;;;;75.20;41.97;;;5.10;99.90;;;;;;4994968;28;20030;-84
2021/03/10 07:54:14;;;;;;;81.63;46.85;;;5.20;99.90;;;;;;4992172;28;20092;-88
2021/03/10 07:56:40;;;;;;;70.97;42.13;;;5.20;99.90;;;;;;4983087;28;20053;-89
2021/03/10 07:59:16;;;;;;;75.15;42.67;;;5.20;99.90;;;;;;4994485;28;20035;-90
2021/03/10 08:01:42;;;;;;;73.07;43.60;;;5.20;99.90;;;;;;4994028;28;20042;-89
2021/03/10 08:04:13;;;;;;;73.15;42.33;;;5.20;99.90;;;;;;4990648;28;20022;-90
2021/03/10 08:06:52;;;;;;;76.70;42.65;;;5.30;99.90;;;;;;4980747;28;20034;-89
2021/03/10 08:09:19;;;;;;;73.30;44.58;;;5.30;99.90;;;;;;4994387;28;20046;-92
2021/03/10 08:12:02;;;;;;;67.00;39.50;;;5.40;99.90;;;;;;4993317;28;20031;-91
2021/03/10 08:14:51;;;;;;;76.97;44.53;;;5.40;99.90;;;;;;4989976;28;20043;-88
2021/03/10 08:17:35;;;;;;;77.45;45.85;;;5.40;99.90;;;;;;4993044;28;20035;-89
2021/03/10 08:20:05;;;;;;;77.55;45.55;;;5.40;99.90;;;;;;4998669;28;20117;-93
2021/03/10 08:22:32;;;;;;;75.80;44.40;;;5.50;99.90;;;;;;4986658;28;20040;-91
2021/03/10 08:24:59;;;;;;;78.10;46.08;;;5.50;99.90;;;;;;4987444;28;20027;-90
2021/03/10 08:27:32;;;;;;;72.10;43.55;;;5.50;99.90;;;;;;4976785;28;20053;-92
2021/03/10 08:29:59;;;;;;;68.75;41.33;;;5.50;99.90;;;;;;4975666;28;20030;-88
2021/03/10 08:32:27;;;;;;;64.68;39.00;;;5.60;99.90;;;;;;4977204;28;20498;-90
2021/03/10 08:34:59;;;;;;;75.57;44.85;;;5.70;99.90;;;;;;4977051;28;20085;-89
2021/03/10 08:37:25;;;;;;;78.47;46.28;;;5.70;99.90;;;;;;4984899;28;20061;-89
2021/03/10 08:39:51;;;;;;;71.95;42.05;;;5.70;99.90;;;;;;4996621;28;20054;-88
2021/03/10 08:42:21;;;;;;;72.30;40.55;;;5.80;99.90;;;;;;4996696;28;20117;-90
2021/03/10 08:44:48;;;;;;;66.75;39.72;;;5.80;99.90;;;;;;5007389;28;20809;-92
2021/03/10 08:47:20;;;;;;;61.70;38.65;;;5.90;99.90;;;;;;4977872;28;20097;-90
2021/03/10 08:49:52;;;;;;;58.83;36.10;;;6.00;99.90;;;;;;4977212;28;20039;-89
2021/03/10 08:52:18;;;;;;;57.25;36.28;;;6.00;99.90;;;;;;4979213;28;20038;-86
2021/03/10 08:54:59;;;;;;;65.38;42.33;;;6.10;99.90;;;;;;4978039;28;20081;-91
2021/03/10 08:57:32;;;;;;;71.47;42.80;;;6.10;99.90;;;;;;4979686;28;20378;-94
2021/03/10 08:59:59;;;;;;;71.75;44.50;;;6.20;99.90;;;;;;4980046;28;20043;-93
2021/03/10 09:02:34;;;;;;;68.20;43.13;;;6.20;99.90;;;;;;4981261;28;20045;-92
2021/03/10 09:05:07;;;;;;;71.45;42.28;;;6.30;99.90;;;;;;4981318;28;20416;-92
2021/03/10 09:07:34;;;;;;;72.93;44.67;;;6.30;99.90;;;;;;4986155;28;20104;-87
2021/03/10 09:10:12;;;;;;;64.75;42.00;;;6.30;99.90;;;;;;5020099;28;20463;-90
2021/03/10 09:12:42;;;;;;;77.90;46.42;;;6.40;99.90;;;;;;5003285;28;20026;-93
2021/03/10 09:15:14;;;;;;;68.85;42.95;;;6.40;99.90;;;;;;4992894;28;20030;-91
2021/03/10 09:17:46;;;;;;;68.15;42.75;;;6.40;99.90;;;;;;4980902;28;20039;-92
2021/03/10 09:20:20;;;;;;;67.35;41.10;;;6.40;99.90;;;;;;4961543;28;20039;-89
2021/03/10 09:22:46;;;;;;;61.30;39.83;;;6.40;99.90;;;;;;4960795;28;20027;-91
2021/03/10 09:25:17;;;;;;;65.70;42.10;;;6.40;99.90;;;;;;4970596;28;20034;-88
2021/03/10 09:27:42;;;;;;;65.97;41.83;;;6.50;99.90;;;;;;4980981;28;20104;-90
2021/03/10 09:30:14;;;;;;;65.50;41.17;;;6.60;99.90;;;;;;4982712;28;20034;-92
2021/03/10 09:32:47;;;;;;;81.28;45.70;;;6.60;99.90;;;;;;4981786;28;20038;-91
2021/03/10 09:35:33;;;;;;;66.10;42.45;;;6.70;99.90;;;;;;4981091;28;20037;-91
2021/03/10 09:38:05;;;;;;;62.97;40.30;;;6.70;99.90;;;;;;4980362;28;20034;-90
2021/03/10 09:40:57;;;;;;;59.90;38.80;;;6.70;99.90;;;;;;4983144;28;20044;-89
2021/03/10 09:43:27;;;;;;;61.80;38.80;;;6.80;99.90;;;;;;4973994;28;20038;-89
2021/03/10 09:46:01;;;;;;;63.33;40.03;;;6.80;99.90;;;;;;4983534;28;20030;-91
2021/03/10 09:48:38;;;;;;;63.22;39.55;;;6.90;99.90;;;;;;4982520;28;20078;-89
2021/03/10 09:51:13;;;;;;;55.75;36.63;;;6.90;99.90;;;;;;4981050;28;20057;-91
2021/03/10 09:53:44;;;;;;;59.65;39.45;;;7.00;99.90;;;;;;4981226;28;20051;-91
2021/03/10 09:56:20;;;;;;;56.58;38.03;;;7.00;99.90;;;;;;4980502;28;20026;-90
2021/03/10 09:58:59;;;;;;;61.65;40.60;;;7.00;99.90;;;;;;5000319;28;20034;-90
2021/03/10 10:01:26;;;;;;;57.22;37.42;;;7.10;99.90;;;;;;5002014;28;20030;-91
2021/03/10 10:03:54;;;;;;;66.32;40.30;;;7.10;99.90;;;;;;5000901;28;20515;-91
2021/03/10 10:06:20;;;;;;;56.80;36.92;;;7.10;99.90;;;;;;4995966;28;20030;-86
2021/03/10 10:08:47;;;;;;;54.70;37.17;;;7.20;99.90;;;;;;4997513;28;20361;-90
2021/03/10 10:11:13;;;;;;;57.67;36.80;;;7.20;99.90;;;;;;4996373;28;20113;-87
2021/03/10 10:13:40;;;;;;;60.20;38.55;;;7.30;99.90;;;;;;4996535;28;20037;-89
2021/03/10 10:16:07;;;;;;;55.08;37.63;;;7.30;99.90;;;;;;4974815;28;20046;-89
2021/03/10 10:18:33;;;;;;;56.85;35.35;;;7.30;99.90;;;;;;4963570;28;20050;-92
2021/03/10 10:21:02;;;;;;;51.35;34.72;;;7.30;99.90;;;;;;4982243;28;20046;-88
2021/03/10 10:23:32;;;;;;;53.00;35.20;;;7.40;99.90;;;;;;4982737;28;20062;-90
2021/03/10 10:25:57;;;;;;;54.90;37.92;;;7.40;99.90;;;;;;4990410;23;20137;-90
2021/03/10 10:28:23;;;;;;;53.47;34.75;;;7.50;99.90;;;;;;4980091;28;20134;-88
2021/03/10 10:30:49;;;;;;;51.78;35.78;;;7.50;99.90;;;;;;4980055;28;20030;-90
2021/03/10 10:33:15;;;;;;;49.75;34.42;;;7.50;99.90;;;;;;4964352;28;20031;-89
2021/03/10 10:35:41;;;;;;;50.35;33.28;;;7.60;99.90;;;;;;4997245;28;20086;-88
2021/03/10 10:38:08;;;;;;;49.90;32.25;;;7.70;99.90;;;;;;4980349;28;20092;-90
2021/03/10 10:40:34;;;;;;;42.50;30.92;;;7.80;99.90;;;;;;4981302;28;20022;-90
2021/03/10 10:42:59;;;;;;;45.95;32.85;;;7.80;99.90;;;;;;4976104;28;20825;-89
2021/03/10 10:45:25;;;;;;;50.30;32.95;;;7.90;99.90;;;;;;4987222;28;20043;-89
2021/03/10 10:47:51;;;;;;;46.65;33.25;;;8.00;99.90;;;;;;4980293;28;20054;-90
2021/03/10 10:50:19;;;;;;;51.55;33.90;;;8.00;99.90;;;;;;4968323;28;20102;-89
2021/03/10 10:52:46;;;;;;;51.13;33.80;;;8.10;99.90;;;;;;4998712;28;20508;-89
2021/03/10 10:55:14;;;;;;;51.13;34.05;;;8.20;99.90;;;;;;4993031;28;20101;-89
2021/03/10 10:57:40;;;;;;;47.17;32.60;;;8.20;99.90;;;;;;4978835;28;20038;-88
2021/03/10 11:00:11;;;;;;;47.10;32.78;;;8.30;99.90;;;;;;4959508;28;20539;-88
2021/03/10 11:02:37;;;;;;;47.42;32.60;;;8.30;99.90;;;;;;4961435;28;20405;-89
2021/03/10 11:05:07;;;;;;;52.30;32.78;;;8.30;99.90;;;;;;4979889;28;20384;-90
2021/03/10 11:07:33;;;;;;;41.28;27.92;;;8.30;99.90;;;;;;4983902;28;20407;-90
2021/03/10 11:09:59;;;;;;;41.58;28.50;;;8.30;99.90;;;;;;4984958;28;20058;-91
2021/03/10 11:12:25;;;;;;;39.10;27.90;;;8.30;99.90;;;;;;5002711;28;20037;-90
2021/03/10 11:14:50;;;;;;;43.15;29.75;;;8.30;99.90;;;;;;4997403;28;20030;-90
2021/03/10 11:17:16;;;;;;;40.53;27.70;;;8.30;99.90;;;;;;4979982;28;20125;-91
2021/03/10 11:19:42;;;;;;;38.97;26.38;;;8.20;99.90;;;;;;4997553;28;20153;-87
2021/03/10 11:22:08;;;;;;;39.10;27.27;;;8.20;99.90;;;;;;4979843;28;20488;-84
2021/03/10 11:24:35;;;;;;;40.55;27.38;;;8.20;99.90;;;;;;5001404;28;20066;-88
2021/03/10 11:27:01;;;;;;;44.45;25.23;;;8.30;99.90;;;;;;4977926;28;20043;-87
2021/03/10 11:29:26;;;;;;;38.53;26.17;;;8.30;99.90;;;;;;4993985;28;20113;-86
2021/03/10 11:31:52;;;;;;;37.97;24.05;;;8.30;99.90;;;;;;4993632;28;20444;-86
2021/03/10 11:34:17;;;;;;;36.28;24.20;;;8.30;99.90;;;;;;4977605;28;20538;-88
2021/03/10 11:36:45;;;;;;;36.20;23.75;;;8.40;99.90;;;;;;4976646;28;20045;-86
2021/03/10 11:39:11;;;;;;;35.50;23.70;;;8.40;99.90;;;;;;4975142;28;20153;-84
2021/03/10 11:41:37;;;;;;;36.58;23.60;;;8.50;99.90;;;;;;4974605;28;20038;-87
2021/03/10 11:44:04;;;;;;;33.78;24.58;;;8.60;99.90;;;;;;4987885;28;20038;-89
2021/03/10 11:46:29;;;;;;;31.70;22.30;;;8.60;99.90;;;;;;4978278;28;20050;-87
2021/03/10 11:48:55;;;;;;;31.13;21.60;;;8.60;99.90;;;;;;4978529;28;20035;-86
2021/03/10 11:51:21;;;;;;;30.55;23.10;;;8.70;99.90;;;;;;4993570;28;20122;-89
2021/03/10 11:53:47;;;;;;;30.38;21.30;;;8.70;99.90;;;;;;4999243;28;20054;-89
2021/03/10 11:56:12;;;;;;;30.45;22.27;;;8.70;99.90;;;;;;4980803;28;20050;-88
2021/03/10 11:58:39;;;;;;;30.25;21.83;;;8.80;99.90;;;;;;4998775;28;20022;-89
2021/03/10 12:01:05;;;;;;;33.97;22.10;;;8.80;99.90;;;;;;4981768;28;20109;-87
2021/03/10 12:03:31;;;;;;;30.65;22.10;;;8.80;99.90;;;;;;4982216;28;20476;-89
2021/03/10 12:05:59;;;;;;;30.40;20.75;;;8.80;99.90;;;;;;4988047;28;20061;-89
2021/03/10 12:08:26;;;;;;;30.55;21.33;;;8.80;99.90;;;;;;5008642;28;20030;-91
2021/03/10 12:10:56;;;;;;;30.17;21.23;;;8.90;99.90;;;;;;4988877;28;20108;-90
2021/03/10 12:13:22;;;;;;;29.27;21.38;;;9.00;99.90;;;;;;5010093;28;20026;-88
2021/03/10 12:15:56;;;;;;;28.73;20.50;;;9.00;99.90;;;;;;4990216;28;20029;-89
2021/03/10 12:18:25;;;;;;;33.88;20.85;;;9.00;99.90;;;;;;4994301;28;20026;-90
2021/03/10 12:20:50;;;;;;;26.77;18.65;;;9.10;99.90;;;;;;5014211;28;20083;-90
2021/03/10 12:23:18;;;;;;;25.33;18.90;;;9.10;99.90;;;;;;4982544;28;20391;-90
2021/03/10 12:25:44;;;;;;;31.63;21.33;;;9.20;99.90;;;;;;5009338;28;20056;-87
2021/03/10 12:28:10;;;;;;;29.33;19.50;;;9.30;99.90;;;;;;4979098;28;20050;-90
2021/03/10 12:30:36;;;;;;;29.05;19.13;;;9.30;99.90;;;;;;4978848;28;20034;-90
2021/03/10 12:33:02;;;;;;;26.63;19.67;;;9.40;99.90;;;;;;4979181;28;20037;-90
2021/03/10 12:35:28;;;;;;;24.85;17.92;;;9.60;99.90;;;;;;4977754;28;20500;-91
2021/03/10 12:37:57;;;;;;;29.30;19.95;;;9.70;99.90;;;;;;4978555;28;20034;-92
2021/03/10 12:40:25;;;;;;;29.20;19.10;;;9.90;99.50;;;;;;4978349;28;20042;-91
2021/03/10 12:42:53;;;;;;;30.98;18.85;;;10.00;98.80;;;;;;4980162;28;20069;-90
2021/03/10 12:45:20;;;;;;;29.55;19.80;;;10.10;98.40;;;;;;4989212;28;20031;-90
2021/03/10 12:47:46;;;;;;;28.35;19.45;;;10.20;98.20;;;;;;4979278;28;20042;-91